createdAt,value
2023-01-29T00:02:00.319Z,94615.50
2023-01-29T00:04:28.325Z,94615.88
2023-01-29T00:06:57.597Z,94623.66
2023-01-29T00:09:25.613Z,94621.94
2023-01-29T00:11:53.486Z,94632.75
2023-01-29T00:14:21.503Z,94633.56
2023-01-29T00:16:49.370Z,94632.03
2023-01-29T00:19:17.574Z,94636.31
2023-01-29T00:21:45.620Z,94635.59
2023-01-29T00:24:15.037Z,94639.88
2023-01-29T00:26:43.270Z,94639.41
2023-01-29T00:29:11.573Z,94641.22
2023-01-29T00:31:40.812Z,94645.00
2023-01-29T00:34:08.655Z,94649.59
2023-01-29T00:36:36.587Z,94639.59
2023-01-29T00:39:10.807Z,94638.06
2023-01-29T00:41:57.957Z,94640.09
2023-01-29T00:44:43.376Z,94629.25
2023-01-29T00:47:30.899Z,94640.72
2023-01-29T00:49:59.271Z,94631.63
2023-01-29T00:52:27.288Z,94643.75
2023-01-29T00:54:56.741Z,94636.28
2023-01-29T00:57:27.752Z,94635.59
2023-01-29T00:59:55.981Z,94631.50
2023-01-29T01:02:42.261Z,94639.34
2023-01-29T01:05:17.952Z,94631.41
2023-01-29T01:07:46.519Z,94634.97
2023-01-29T01:10:21.835Z,94638.84
2023-01-29T01:12:54.816Z,94630.78
2023-01-29T01:15:23.765Z,94629.34
2023-01-29T01:17:54.475Z,94639.22
2023-01-29T01:20:22.687Z,94638.00
2023-01-29T01:22:51.044Z,94660.50
2023-01-29T01:25:19.092Z,94647.88
2023-01-29T01:27:47.159Z,94644.28
2023-01-29T01:30:17.936Z,94627.47
2023-01-29T01:32:46.029Z,94641.53
2023-01-29T01:35:14.858Z,94638.25
2023-01-29T01:37:43.517Z,94633.34
2023-01-29T01:40:18.526Z,94629.88
2023-01-29T01:42:49.376Z,94629.38
2023-01-29T01:45:25.967Z,94638.69
2023-01-29T01:47:58.594Z,94636.97
2023-01-29T01:50:30.919Z,94639.94
2023-01-29T01:53:03.453Z,94640.72
2023-01-29T01:55:35.097Z,94641.13
2023-01-29T01:58:09.964Z,94636.13
2023-01-29T02:00:40.698Z,94644.63
2023-01-29T02:03:27.537Z,94650.00
2023-01-29T02:06:15.359Z,94647.94
2023-01-29T02:09:09.015Z,94652.13
2023-01-29T02:11:37.358Z,94647.53
2023-01-29T02:14:05.641Z,94644.09
2023-01-29T02:16:36.720Z,94650.63
2023-01-29T02:19:08.427Z,94647.06
2023-01-29T02:22:00.941Z,94640.31
2023-01-29T02:25:00.135Z,94646.03
2023-01-29T02:27:37.117Z,94645.84
2023-01-29T02:30:10.677Z,94647.06
2023-01-29T02:32:58.678Z,94663.16
2023-01-29T02:35:32.163Z,94666.53
2023-01-29T02:38:12.937Z,94673.34
2023-01-29T02:40:46.730Z,94662.88
2023-01-29T02:43:28.608Z,94667.56
2023-01-29T02:46:04.263Z,94673.56
2023-01-29T02:48:41.723Z,94672.72
2023-01-29T02:51:15.293Z,94676.13
2023-01-29T02:53:53.792Z,94673.47
2023-01-29T02:56:25.473Z,94672.84
2023-01-29T02:58:58.495Z,94669.28
2023-01-29T03:01:33.160Z,94672.66
2023-01-29T03:04:05.172Z,94666.63
2023-01-29T03:06:36.483Z,94669.69
2023-01-29T03:09:10.214Z,94663.78
2023-01-29T03:11:42.402Z,94668.25
2023-01-29T03:14:14.394Z,94665.31
2023-01-29T03:16:48.779Z,94675.81
2023-01-29T03:19:20.405Z,94672.75
2023-01-29T03:21:59.221Z,94670.03
2023-01-29T03:25:02.554Z,94674.84
2023-01-29T03:27:54.947Z,94681.66
2023-01-29T03:30:44.587Z,94685.06
2023-01-29T03:33:17.294Z,94682.56
2023-01-29T03:35:53.137Z,94680.03
2023-01-29T03:38:21.579Z,94683.50
2023-01-29T03:40:57.626Z,94674.00
2023-01-29T03:43:33.685Z,94678.69
2023-01-29T03:46:08.462Z,94675.03
2023-01-29T03:48:42.763Z,94684.81
2023-01-29T03:51:23.483Z,94676.25
2023-01-29T03:53:55.144Z,94681.53
2023-01-29T03:56:40.626Z,94673.06
2023-01-29T03:59:18.167Z,94678.44
2023-01-29T04:01:49.994Z,94679.19
2023-01-29T04:04:25.525Z,94683.38
2023-01-29T04:06:57.701Z,94675.00
2023-01-29T04:09:31.259Z,94676.13
2023-01-29T04:12:05.284Z,94662.84
2023-01-29T04:14:33.929Z,94679.56
2023-01-29T04:17:07.223Z,94685.69
2023-01-29T04:19:37.367Z,94689.66
2023-01-29T04:22:08.833Z,94696.41
2023-01-29T04:24:36.778Z,94688.13
2023-01-29T04:27:21.886Z,94686.31
2023-01-29T04:30:05.709Z,94693.47
2023-01-29T04:32:48.827Z,94690.91
2023-01-29T04:35:30.755Z,94697.66
2023-01-29T04:38:09.482Z,94696.13
2023-01-29T04:40:47.431Z,94693.38
2023-01-29T04:43:22.409Z,94695.28
2023-01-29T04:46:05.043Z,94688.03
2023-01-29T04:48:42.424Z,94697.41
2023-01-29T04:51:19.044Z,94699.34
2023-01-29T04:53:52.609Z,94691.97
2023-01-29T04:56:26.488Z,94699.16
2023-01-29T04:59:00.602Z,94703.03
2023-01-29T05:01:33.229Z,94703.03
2023-01-29T05:04:04.497Z,94701.22
2023-01-29T05:06:34.507Z,94704.25
2023-01-29T05:09:03.679Z,94702.72
2023-01-29T05:11:33.602Z,94703.63
2023-01-29T05:14:06.017Z,94708.63
2023-01-29T05:16:42.165Z,94717.28
2023-01-29T05:19:13.245Z,94706.06
2023-01-29T05:21:47.245Z,94703.09
2023-01-29T05:24:18.004Z,94708.53
2023-01-29T05:27:06.430Z,94713.63
2023-01-29T05:29:34.444Z,94719.81
2023-01-29T05:32:02.456Z,94716.16
2023-01-29T05:34:30.406Z,94717.59
2023-01-29T05:36:59.668Z,94720.88
2023-01-29T05:39:27.530Z,94723.53
2023-01-29T05:41:55.514Z,94734.44
2023-01-29T05:44:23.394Z,94729.34
2023-01-29T05:46:51.881Z,94727.13
2023-01-29T05:49:20.725Z,94719.06
2023-01-29T05:51:48.588Z,94730.69
2023-01-29T05:54:17.894Z,94730.06
2023-01-29T05:56:45.749Z,94731.63
2023-01-29T05:59:13.680Z,94725.25
2023-01-29T06:01:42.055Z,94737.00
2023-01-29T06:04:10.180Z,94739.47
2023-01-29T06:06:38.046Z,94743.81
2023-01-29T06:09:05.937Z,94748.03
2023-01-29T06:11:35.655Z,94758.31
2023-01-29T06:14:03.969Z,94756.03
2023-01-29T06:16:32.155Z,94762.47
2023-01-29T06:19:00.408Z,94757.84
2023-01-29T06:21:28.567Z,94746.50
2023-01-29T06:23:56.711Z,94760.34
2023-01-29T06:26:24.654Z,94768.22
2023-01-29T06:28:54.167Z,94775.22
2023-01-29T06:31:38.678Z,94776.69
2023-01-29T06:34:10.449Z,94774.56
2023-01-29T06:36:39.202Z,94782.34
2023-01-29T06:39:07.141Z,94787.50
2023-01-29T06:41:37.429Z,94786.59
2023-01-29T06:44:07.132Z,94783.25
2023-01-29T06:46:37.089Z,94780.59
2023-01-29T06:49:05.247Z,94791.78
2023-01-29T06:51:33.202Z,94791.53
2023-01-29T06:54:06.513Z,94791.53
2023-01-29T06:56:34.420Z,94792.28
2023-01-29T06:59:04.188Z,94800.56
2023-01-29T07:01:36.458Z,94801.50
2023-01-29T07:04:05.237Z,94794.03
2023-01-29T07:06:33.603Z,94799.13
2023-01-29T07:09:01.654Z,94815.22
2023-01-29T07:11:29.661Z,94803.50
2023-01-29T07:13:57.767Z,94811.34
2023-01-29T07:16:26.414Z,94820.63
2023-01-29T07:18:55.893Z,94823.34
2023-01-29T07:21:23.893Z,94825.09
2023-01-29T07:23:52.086Z,94819.75
2023-01-29T07:26:21.528Z,94828.13
2023-01-29T07:28:49.394Z,94820.75
2023-01-29T07:31:17.386Z,94833.00
2023-01-29T07:33:45.481Z,94823.13
2023-01-29T07:36:15.467Z,94824.88
2023-01-29T07:38:50.051Z,94831.41
2023-01-29T07:41:17.955Z,94819.03
2023-01-29T07:43:46.069Z,94822.09
2023-01-29T07:46:13.956Z,94835.06
2023-01-29T07:48:41.924Z,94832.53
2023-01-29T07:51:09.769Z,94842.19
2023-01-29T07:53:39.008Z,94835.03
2023-01-29T07:56:09.877Z,94838.41
2023-01-29T07:58:40.784Z,94840.03
2023-01-29T08:01:09.334Z,94846.88
2023-01-29T08:03:37.776Z,94853.91
2023-01-29T08:06:06.331Z,94846.44
2023-01-29T08:08:34.238Z,94849.19
2023-01-29T08:11:05.558Z,94848.69
2023-01-29T08:13:33.936Z,94843.75
2023-01-29T08:16:02.342Z,94852.84
2023-01-29T08:18:31.561Z,94853.91
2023-01-29T08:21:03.329Z,94857.56
2023-01-29T08:23:31.525Z,94857.19
2023-01-29T08:26:02.166Z,94850.81
2023-01-29T08:28:31.528Z,94846.72
2023-01-29T08:30:59.786Z,94859.38
2023-01-29T08:33:38.393Z,94865.56
2023-01-29T08:36:08.522Z,94864.13
2023-01-29T08:38:36.949Z,94869.16
2023-01-29T08:41:12.519Z,94867.72
2023-01-29T08:43:41.782Z,94862.97
2023-01-29T08:46:09.845Z,94868.59
2023-01-29T08:48:37.861Z,94874.78
2023-01-29T08:51:06.006Z,94878.66
2023-01-29T08:53:34.460Z,94886.22
2023-01-29T08:56:02.782Z,94889.16
2023-01-29T08:58:30.682Z,94893.44
2023-01-29T09:01:07.310Z,94893.97
2023-01-29T09:03:35.206Z,94898.28
2023-01-29T09:06:03.190Z,94900.25
2023-01-29T09:08:31.150Z,94891.91
2023-01-29T09:11:01.220Z,94892.19
2023-01-29T09:13:32.132Z,94887.59
2023-01-29T09:16:02.158Z,94892.13
2023-01-29T09:18:30.941Z,94895.63
2023-01-29T09:20:59.132Z,94897.06
2023-01-29T09:23:27.038Z,94897.69
2023-01-29T09:25:54.909Z,94889.56
2023-01-29T09:28:23.161Z,94887.75
2023-01-29T09:30:51.281Z,94892.06
2023-01-29T09:33:20.966Z,94892.22
2023-01-29T09:35:48.870Z,94890.00
2023-01-29T09:38:16.773Z,94894.56
2023-01-29T09:40:54.712Z,94882.50
2023-01-29T09:43:33.108Z,94882.06
2023-01-29T09:46:07.525Z,94886.16
2023-01-29T09:48:37.840Z,94879.31
2023-01-29T09:51:14.787Z,94883.50
2023-01-29T09:53:50.050Z,94876.75
2023-01-29T09:56:22.058Z,94879.50
2023-01-29T09:58:50.207Z,94880.91
2023-01-29T10:01:25.355Z,94877.34
2023-01-29T10:04:32.267Z,94875.94
2023-01-29T10:07:16.199Z,94878.34
2023-01-29T10:10:02.870Z,94865.69
2023-01-29T10:12:51.720Z,94870.28
2023-01-29T10:15:29.604Z,94852.16
2023-01-29T10:18:23.420Z,94857.72
2023-01-29T10:21:04.603Z,94862.09
2023-01-29T10:23:35.897Z,94867.03
2023-01-29T10:26:04.274Z,94870.09
2023-01-29T10:28:39.703Z,94861.50
2023-01-29T10:31:14.023Z,94852.22
2023-01-29T10:33:49.571Z,94853.66
2023-01-29T10:36:35.538Z,94841.34
2023-01-29T10:39:03.528Z,94839.41
2023-01-29T10:41:52.543Z,94836.75
2023-01-29T10:44:34.707Z,94836.75
2023-01-29T10:47:18.803Z,94843.50
2023-01-29T10:50:02.100Z,94836.03
2023-01-29T10:52:41.280Z,94835.56
2023-01-29T10:55:26.562Z,94847.97
2023-01-29T10:58:06.972Z,94835.94
2023-01-29T11:00:38.564Z,94828.31
2023-01-29T11:03:27.096Z,94832.97
2023-01-29T11:06:04.093Z,94832.88
2023-01-29T11:08:41.354Z,94820.97
2023-01-29T11:11:13.996Z,94833.34
2023-01-29T11:13:46.765Z,94832.34
2023-01-29T11:16:14.944Z,94824.47
2023-01-29T11:18:55.551Z,94826.13
2023-01-29T11:21:24.604Z,94819.59
2023-01-29T11:24:07.552Z,94817.94
2023-01-29T11:26:40.160Z,94818.63
2023-01-29T11:29:33.114Z,94810.47
2023-01-29T11:32:04.390Z,94810.47
2023-01-29T11:34:32.696Z,94811.59
2023-01-29T11:37:02.679Z,94806.31
2023-01-29T11:39:33.761Z,94798.56
2023-01-29T11:42:03.749Z,94772.09
2023-01-29T11:44:34.372Z,94783.03
2023-01-29T11:47:13.609Z,94785.72
2023-01-29T11:49:46.749Z,94768.06
2023-01-29T11:52:16.936Z,94793.59
2023-01-29T11:54:50.683Z,94783.38
2023-01-29T11:57:26.326Z,94779.19
2023-01-29T11:59:56.641Z,94789.81
2023-01-29T12:02:35.553Z,94784.63
2023-01-29T12:05:07.948Z,94775.09
2023-01-29T12:07:42.243Z,94778.88
2023-01-29T12:10:31.991Z,94781.97
2023-01-29T12:13:06.246Z,94776.13
2023-01-29T12:15:34.436Z,94770.44
2023-01-29T12:18:09.467Z,94768.06
2023-01-29T12:20:42.328Z,94767.47
2023-01-29T12:23:25.071Z,94786.28
2023-01-29T12:26:00.338Z,94788.31
2023-01-29T12:37:28.795Z,94771.13
2023-01-29T12:40:13.847Z,94793.94
2023-01-29T12:42:49.579Z,94768.69
2023-01-29T12:45:20.732Z,94787.25
2023-01-29T12:47:54.047Z,94762.34
2023-01-29T12:50:25.608Z,94769.31
2023-01-29T12:52:57.816Z,94773.50
2023-01-29T12:55:35.319Z,94780.31
2023-01-29T12:58:15.669Z,94769.81
2023-01-29T13:00:47.114Z,94768.47
2023-01-29T13:03:22.599Z,94752.84
2023-01-29T13:05:55.235Z,94762.75
2023-01-29T13:08:42.894Z,94782.44
2023-01-29T13:11:17.858Z,94782.91
2023-01-29T13:14:06.690Z,94770.13
2023-01-29T13:16:48.403Z,94763.16
2023-01-29T13:19:27.658Z,94759.91
2023-01-29T13:22:07.084Z,94776.31
2023-01-29T13:24:41.251Z,94776.22
2023-01-29T13:27:36.991Z,94775.78
2023-01-29T13:30:28.002Z,94748.84
2023-01-29T13:33:17.798Z,94773.84
2023-01-29T13:35:47.555Z,94769.59
2023-01-29T13:38:26.309Z,94795.22
2023-01-29T13:40:59.616Z,94789.59
2023-01-29T13:43:29.779Z,94786.00
2023-01-29T13:49:44.355Z,94793.00
2023-01-29T13:52:27.022Z,94807.44
2023-01-29T13:55:03.645Z,94799.56
2023-01-29T13:57:57.011Z,94775.31
2023-01-29T14:00:55.282Z,94808.66
2023-01-29T14:04:10.699Z,94812.09
2023-01-29T14:07:11.517Z,94798.31
2023-01-29T14:10:26.727Z,94798.09
2023-01-29T14:16:24.855Z,94822.09
2023-01-29T14:19:00.009Z,94814.94
2023-01-29T14:21:32.488Z,94792.34
2023-01-29T14:30:10.555Z,94838.16
2023-01-29T14:32:53.320Z,94814.19
2023-01-29T14:35:40.518Z,94831.16
2023-01-29T14:44:42.732Z,94852.84
2023-01-29T14:50:19.286Z,94848.56
2023-01-29T14:53:16.733Z,94839.56
2023-01-29T14:55:49.608Z,94827.09
2023-01-29T15:07:55.413Z,94826.09
2023-01-29T15:23:05.961Z,94816.50
2023-01-29T16:05:43.952Z,94852.84
2023-01-29T16:08:18.105Z,94856.66
2023-01-29T16:10:52.576Z,94865.81
2023-01-29T16:13:31.958Z,94855.41
2023-01-29T16:16:02.819Z,94878.63
2023-01-29T16:18:36.332Z,94849.56
2023-01-29T16:21:09.326Z,94857.81
2023-01-29T16:23:47.677Z,94865.03
2023-01-29T16:26:21.403Z,94860.97
2023-01-29T16:29:14.146Z,94871.59
2023-01-29T16:31:47.988Z,94882.78
2023-01-29T16:37:23.593Z,94879.53
2023-01-29T16:39:53.623Z,94872.69
2023-01-29T16:42:24.768Z,94861.41
2023-01-29T16:44:56.126Z,94867.72
2023-01-29T16:47:29.555Z,94864.16
2023-01-29T16:50:00.777Z,94858.53
2023-01-29T16:52:30.698Z,94881.22
2023-01-29T16:55:16.112Z,94865.59
2023-01-29T16:57:54.270Z,94870.66
2023-01-29T17:00:25.854Z,94869.31
2023-01-29T17:02:58.529Z,94865.22
2023-01-29T17:05:31.870Z,94884.78
2023-01-29T17:08:15.175Z,94878.25
2023-01-29T17:10:48.654Z,94868.41
2023-01-29T17:13:33.031Z,94872.28
2023-01-29T17:16:03.939Z,94875.13
2023-01-29T17:18:32.590Z,94865.03
2023-01-29T17:21:02.125Z,94869.25
2023-01-29T17:23:30.472Z,94879.28
2023-01-29T17:25:59.029Z,94869.91
2023-01-29T17:28:27.673Z,94871.34
2023-01-29T17:31:05.829Z,94857.25
2023-01-29T17:33:35.409Z,94871.72
2023-01-29T17:36:05.334Z,94879.91
2023-01-29T17:38:33.946Z,94880.16
2023-01-29T17:41:07.071Z,94875.34
2023-01-29T17:43:35.933Z,94873.06
2023-01-29T17:46:03.924Z,94888.63
2023-01-29T17:48:33.332Z,94874.19
2023-01-29T17:51:05.627Z,94867.06
2023-01-29T17:53:45.638Z,94880.97
2023-01-29T17:56:28.101Z,94886.25
2023-01-29T17:58:56.566Z,94892.59
2023-01-29T18:01:24.580Z,94884.72
2023-01-29T18:03:52.667Z,94874.25
2023-01-29T18:06:28.453Z,94881.47
2023-01-29T18:08:57.566Z,94882.66
2023-01-29T18:11:25.711Z,94883.56
2023-01-29T18:13:54.707Z,94878.03
2023-01-29T18:16:27.506Z,94875.31
2023-01-29T18:18:55.757Z,94866.22
2023-01-29T18:21:25.098Z,94877.63
2023-01-29T18:23:53.320Z,94870.38
2023-01-29T18:26:22.430Z,94867.41
2023-01-29T18:28:51.361Z,94859.31
2023-01-29T18:31:19.567Z,94858.69
2023-01-29T18:33:48.076Z,94843.16
2023-01-29T18:36:16.082Z,94865.97
2023-01-29T18:38:45.459Z,94859.16
2023-01-29T18:41:13.573Z,94870.91
2023-01-29T18:43:43.136Z,94862.88
2023-01-29T18:46:11.211Z,94859.59
2023-01-29T18:48:40.967Z,94855.50
2023-01-29T18:51:10.372Z,94854.38
2023-01-29T18:53:38.433Z,94854.06
2023-01-29T18:56:08.999Z,94848.53
2023-01-29T18:58:55.381Z,94860.41
2023-01-29T19:01:24.416Z,94860.41
2023-01-29T19:03:52.410Z,94868.88
2023-01-29T19:06:20.375Z,94848.94
2023-01-29T19:08:49.083Z,94863.78
2023-01-29T19:11:18.520Z,94849.56
2023-01-29T19:13:47.996Z,94869.63
2023-01-29T19:16:15.928Z,94849.81
2023-01-29T19:18:44.031Z,94853.06
2023-01-29T19:21:14.389Z,94854.31
2023-01-29T19:23:43.263Z,94859.44
2023-01-29T19:26:12.159Z,94852.94
2023-01-29T19:28:41.901Z,94858.56
2023-01-29T19:31:10.982Z,94853.94
2023-01-29T19:33:40.120Z,94861.31
2023-01-29T19:36:08.951Z,94855.13
2023-01-29T19:38:38.915Z,94847.38
2023-01-29T19:41:07.377Z,94840.19
2023-01-29T19:43:35.567Z,94848.66
2023-01-29T19:46:06.529Z,94852.75
2023-01-29T19:48:34.655Z,94849.56
2023-01-29T19:51:04.660Z,94859.75
2023-01-29T19:53:32.653Z,94864.06
2023-01-29T19:56:01.797Z,94868.03
2023-01-29T19:58:30.726Z,94854.13
2023-01-29T20:00:59.855Z,94862.84
2023-01-29T20:03:30.393Z,94866.19
2023-01-29T20:06:03.924Z,94848.22
2023-01-29T20:08:32.337Z,94858.41
2023-01-29T20:11:00.525Z,94851.50
2023-01-29T20:13:29.113Z,94852.94
2023-01-29T20:15:57.318Z,94860.41
2023-01-29T20:18:25.497Z,94847.41
2023-01-29T20:20:55.749Z,94856.84
2023-01-29T20:23:37.243Z,94851.88
2023-01-29T20:26:07.048Z,94839.50
2023-01-29T20:28:36.261Z,94854.72
2023-01-29T20:31:05.626Z,94868.94
2023-01-29T20:33:34.858Z,94856.34
2023-01-29T20:36:06.364Z,94863.19
2023-01-29T20:38:34.873Z,94873.78
2023-01-29T20:41:07.501Z,94867.41
2023-01-29T20:43:36.303Z,94870.69
2023-01-29T20:46:04.885Z,94844.41
2023-01-29T20:48:33.623Z,94866.72
2023-01-29T20:51:08.188Z,94855.13
2023-01-29T20:53:36.639Z,94864.25
2023-01-29T20:56:05.323Z,94862.72
2023-01-29T20:58:33.631Z,94866.72
2023-01-29T21:01:01.805Z,94874.06
2023-01-29T21:03:29.923Z,94868.25
2023-01-29T21:05:59.222Z,94863.03
2023-01-29T21:08:28.715Z,94862.63
2023-01-29T21:10:56.666Z,94877.34
2023-01-29T21:13:24.741Z,94884.63
2023-01-29T21:15:52.804Z,94862.72
2023-01-29T21:18:21.063Z,94856.19
2023-01-29T21:20:50.557Z,94872.44
2023-01-29T21:23:18.643Z,94884.91
2023-01-29T21:25:48.196Z,94885.72
2023-01-29T21:28:17.486Z,94880.00
2023-01-29T21:30:45.629Z,94874.69
2023-01-29T21:33:13.653Z,94887.81
2023-01-29T21:35:41.640Z,94853.97
2023-01-29T21:38:09.692Z,94880.91
2023-01-29T21:40:37.574Z,94885.09
2023-01-29T21:43:11.990Z,94858.31
2023-01-29T21:45:41.338Z,94873.25
2023-01-29T21:48:10.236Z,94876.97
2023-01-29T21:50:38.946Z,94871.66
2023-01-29T21:53:07.027Z,94870.47
2023-01-29T21:55:35.178Z,94858.28
2023-01-29T21:58:04.421Z,94875.38
2023-01-29T22:00:33.830Z,94871.59
2023-01-29T22:03:01.995Z,94873.72
2023-01-29T22:05:30.358Z,94864.31
2023-01-29T22:07:58.321Z,94858.75
2023-01-29T22:10:26.431Z,94859.88
2023-01-29T22:12:54.673Z,94858.69
2023-01-29T22:15:23.907Z,94850.22
2023-01-29T22:17:53.555Z,94835.50
2023-01-29T22:20:29.663Z,94844.28
2023-01-29T22:22:59.506Z,94842.59
2023-01-29T22:25:27.897Z,94839.03
2023-01-29T22:27:56.111Z,94833.72
2023-01-29T22:30:24.313Z,94842.84
2023-01-29T22:32:53.812Z,94834.19
2023-01-29T22:35:21.956Z,94837.63
2023-01-29T22:37:50.087Z,94821.75
2023-01-29T22:40:18.501Z,94832.28
2023-01-29T22:42:46.839Z,94825.22
2023-01-29T22:45:14.936Z,94830.78
2023-01-29T22:47:42.953Z,94828.69
2023-01-29T22:50:13.862Z,94821.59
2023-01-29T22:52:43.434Z,94824.69
2023-01-29T22:55:12.742Z,94800.75
2023-01-29T22:57:41.229Z,94821.97
2023-01-29T23:00:12.494Z,94824.06
2023-01-29T23:02:40.483Z,94806.28
2023-01-29T23:05:09.297Z,94803.75
2023-01-29T23:07:38.560Z,94811.31
2023-01-29T23:10:07.351Z,94807.31
2023-01-29T23:12:35.347Z,94821.69
2023-01-29T23:15:03.240Z,94802.66
2023-01-29T23:17:31.217Z,94808.75
2023-01-29T23:19:59.309Z,94810.94
2023-01-29T23:22:27.169Z,94804.28
2023-01-29T23:24:56.508Z,94807.91
2023-01-29T23:27:23.471Z,94803.75
2023-01-29T23:29:51.402Z,94790.84
2023-01-29T23:32:21.526Z,94803.00
2023-01-29T23:34:49.564Z,94811.19
2023-01-29T23:37:17.547Z,94811.03
2023-01-29T23:39:45.474Z,94802.13
2023-01-29T23:42:15.031Z,94805.97
2023-01-29T23:44:42.941Z,94814.25
2023-01-29T23:47:11.170Z,94809.03
2023-01-29T23:49:39.068Z,94798.31
2023-01-29T23:52:07.804Z,94812.69
2023-01-29T23:54:35.742Z,94806.59
2023-01-29T23:57:03.611Z,94804.69
2023-01-29T23:59:32.931Z,94815.59
